Time;durP1;ratioP1;P1;durP2;ratioP2;P2;SDS_P1;SDS_P2;PMS_P1;PMS_P2;Temp;Humidity;BMP_temperature;BMP_pressure;BME280_temperature;BME280_humidity;BME280_pressure;Samples;Min_cycle;Max_cycle;Signal;HPM_P1;HPM_P2
2024/01/23 00:00:46;;;;;;;1.90;1.80;;;;;;;-6.67;100.00;-20214.22;5032871;28;20175;-71
2024/01/23 00:03:12;;;;;;;2.80;2.60;;;;;;;-6.99;100.00;-20206.91;5032851;28;20685;-70
2024/01/23 00:05:37;;;;;;;1.70;1.60;;;;;;;-6.82;100.00;-19900.81;5033074;28;20179;-71
2024/01/23 00:08:03;;;;;;;2.00;1.90;;;;;;;-6.69;100.00;-20213.84;5032788;28;20205;-71
2024/01/23 00:10:29;;;;;;;1.63;1.53;;;;;;;-6.72;100.00;-20213.16;5032417;28;20176;-74
2024/01/23 00:12:54;;;;;;;2.13;2.03;;;;;;;-6.89;100.00;-19899.22;5031150;28;20243;-71
2024/01/23 00:15:20;;;;;;;1.87;1.77;;;;;;;-6.96;100.00;-19897.63;5031649;28;20270;-69
2024/01/23 00:17:45;;;;;;;2.43;2.23;;;;;;;-6.89;100.00;-19279.13;5032915;28;20247;-72
2024/01/23 00:20:11;;;;;;;3.40;2.60;;;;;;;-6.66;100.00;-19284.09;5032849;28;20560;-72
2024/01/23 00:22:36;;;;;;;1.77;1.67;;;;;;;-6.96;100.00;-19277.59;5032484;28;20198;-72
2024/01/23 00:25:02;;;;;;;2.97;2.73;;;;;;;-6.99;100.00;-19276.97;5032591;28;20608;-73
2024/01/23 00:27:27;;;;;;;2.30;2.07;;;;;;;-6.75;100.00;-19282.16;5031850;28;20175;-71
2024/01/23 00:29:54;;;;;;;2.03;1.93;;;;;;;-7.11;100.00;-19584.31;5032563;28;20731;-73
2024/01/23 00:32:19;;;;;;;1.70;1.60;;;;;;;-6.79;100.00;-19901.47;5032479;28;20226;-68
2024/01/23 00:34:44;;;;;;;1.83;1.73;;;;;;;-6.96;100.00;-19897.63;5033110;28;20219;-72
2024/01/23 00:37:10;;;;;;;1.80;1.70;;;;;;;-7.25;100.00;-19891.16;5032688;28;20179;-73
2024/01/23 00:39:38;;;;;;;4.73;4.27;;;;;;;-6.85;100.00;-20210.25;5032968;28;20177;-71
2024/01/23 00:42:06;;;;;;;1.93;1.83;;;;;;;-6.79;100.00;-20211.66;5039460;28;20210;-70
2024/01/23 00:44:32;;;;;;;1.53;1.43;;;;;;;-6.67;100.00;-20214.22;5032815;28;20255;-71
2024/01/23 00:46:57;;;;;;;2.07;1.97;;;;;;;-7.04;100.00;-19895.81;5032297;28;20258;-72
2024/01/23 00:49:23;;;;;;;2.03;1.93;;;;;;;-7.26;100.00;-19891.03;5030972;28;20212;-72
2024/01/23 00:51:48;;;;;;;15.03;3.20;;;;;;;-7.04;100.00;-20205.72;5032060;28;20198;-70
2024/01/23 00:54:14;;;;;;;1.50;1.40;;;;;;;-6.83;100.00;-20210.72;5032119;28;20204;-73
2024/01/23 00:56:41;;;;;;;2.60;2.40;;;;;;;-6.77;100.00;-20212.00;5032076;28;20223;-72
2024/01/23 00:59:12;;;;;;;3.83;3.50;;;;;;;-6.79;100.00;-20211.53;5032238;28;20180;-70
2024/01/23 01:01:38;;;;;;;2.13;2.03;;;;;;;-7.18;100.00;-20202.72;5033688;28;20597;-71
2024/01/23 01:04:04;;;;;;;1.90;1.80;;;;;;;-7.01;100.00;-20516.47;5037775;28;20237;-70
2024/01/23 01:06:29;;;;;;;2.53;2.33;;;;;;;-7.02;100.00;-20206.31;5031820;28;20559;-69
2024/01/23 01:08:55;;;;;;;2.27;2.17;;;;;;;-7.04;100.00;-20205.84;5031797;28;20195;-72
2024/01/23 01:11:20;;;;;;;1.60;1.50;;;;;;;-7.33;100.00;-20199.13;5031601;28;20208;-71
2024/01/23 01:13:46;;;;;;;4.07;2.63;;;;;;;-6.98;100.00;-20207.13;5031650;28;20174;-73
2024/01/23 01:16:12;;;;;;;1.70;1.60;;;;;;;-6.57;100.00;-20216.53;5031850;28;20261;-73
2024/01/23 01:18:39;;;;;;;2.00;1.90;;;;;;;-6.72;100.00;-19903.19;5031614;28;20232;-71
2024/01/23 01:21:06;;;;;;;1.63;1.53;;;;;;;-6.93;100.00;-20208.28;5031765;28;20219;-73
2024/01/23 01:23:31;;;;;;;1.87;1.77;;;;;;;-6.74;100.00;-20212.69;5031668;28;20206;-73
2024/01/23 01:25:56;;;;;;;2.20;2.10;;;;;;;-6.74;100.00;-20212.69;5033135;28;20168;-71
2024/01/23 01:28:22;;;;;;;1.70;1.60;;;;;;;-6.86;100.00;-20210.03;5040552;28;20203;-73
2024/01/23 01:30:47;;;;;;;1.93;1.83;;;;;;;-6.88;100.00;-20209.44;5030984;28;20239;-74
2024/01/23 01:33:13;;;;;;;2.27;2.17;;;;;;;-6.86;100.00;-19900.00;5031295;28;20223;-72
2024/01/23 01:35:38;;;;;;;2.93;2.73;;;;;;;-6.81;100.00;-20211.06;5031301;28;20178;-72
2024/01/23 01:38:03;;;;;;;1.47;1.37;;;;;;;-7.05;100.00;-20205.50;5031757;28;20175;-70
2024/01/23 01:40:29;;;;;;;1.40;1.30;;;;;;;-6.90;100.00;-20208.97;5031467;28;20630;-71
2024/01/23 01:42:54;;;;;;;1.87;1.77;;;;;;;-7.07;100.00;-19895.25;5031447;28;20236;-72
2024/01/23 01:45:21;;;;;;;9.17;3.30;;;;;;;-7.25;100.00;-19891.25;5031102;28;20198;-69
2024/01/23 01:47:47;;;;;;;5.30;3.17;;;;;;;-6.89;100.00;-19899.31;5031211;28;20175;-69
2024/01/23 01:50:13;;;;;;;1.83;1.70;;;;;;;-6.99;100.00;-19586.97;5036770;28;20164;-68
2024/01/23 01:52:41;;;;;;;2.53;2.33;;;;;;;-7.07;100.00;-19585.19;5031825;28;20170;-73
2024/01/23 01:55:08;;;;;;;2.40;2.30;;;;;;;-7.42;100.00;-19577.66;5031162;28;20264;-70
2024/01/23 01:57:44;;;;;;;4.60;2.60;;;;;;;-7.07;100.00;-19585.19;5031289;28;20191;-74
2024/01/23 02:00:10;;;;;;;2.07;1.97;;;;;;;-7.16;100.00;-19273.50;5031431;28;20202;-69
2024/01/23 02:02:40;;;;;;;6.83;5.20;;;;;;;-7.12;100.00;-19274.25;5030553;28;20215;-71
2024/01/23 02:05:05;;;;;;;1.70;1.60;;;;;;;-7.38;100.00;-18649.00;5030971;28;20160;-70
2024/01/23 02:07:33;;;;;;;1.70;1.60;;;;;;;-7.23;100.00;-18342.13;5030737;28;20658;-73
2024/01/23 02:09:58;;;;;;;1.77;1.67;;;;;;;-7.41;100.00;-18028.59;5029668;28;20285;-71
2024/01/23 02:12:24;;;;;;;2.23;2.13;;;;;;;-7.37;100.00;-18339.31;5039798;28;20241;-71
2024/01/23 02:14:49;;;;;;;1.77;1.67;;;;;;;-7.74;100.00;-18641.56;5028047;28;20201;-71
2024/01/23 02:17:15;;;;;;;1.80;1.70;;;;;;;-7.71;100.00;-18642.19;5030021;28;20176;-72
2024/01/23 02:19:40;;;;;;;2.30;2.20;;;;;;;-7.77;100.00;-18640.94;5030736;28;20627;-72
2024/01/23 02:22:05;;;;;;;1.87;1.77;;;;;;;-7.38;100.00;-18958.88;5029129;28;20698;-71
2024/01/23 02:24:31;;;;;;;3.07;2.87;;;;;;;-7.33;100.00;-18650.03;5030409;28;20638;-71
2024/01/23 02:26:56;;;;;;;1.77;1.67;;;;;;;-7.50;100.00;-18646.44;5030550;28;20651;-73
2024/01/23 02:29:21;;;;;;;1.60;1.50;;;;;;;-7.73;100.00;-18951.47;5030116;28;20175;-68
2024/01/23 02:31:47;;;;;;;2.03;1.87;;;;;;;-7.81;100.00;-18949.78;5030117;28;20204;-72
2024/01/23 02:34:12;;;;;;;1.80;1.70;;;;;;;-7.84;100.00;-18949.13;5030212;28;20428;-71
2024/01/23 02:36:40;;;;;;;2.10;1.90;;;;;;;-7.23;100.00;-18962.06;5030659;28;20198;-70
2024/01/23 02:39:07;;;;;;;1.73;1.63;;;;;;;-7.26;100.00;-18651.38;5029944;28;20733;-71
2024/01/23 02:41:33;;;;;;;2.50;2.30;;;;;;;-7.42;100.00;-18648.19;5030009;28;20199;-69
2024/01/23 02:43:58;;;;;;;1.70;1.60;;;;;;;-7.31;100.00;-18650.34;5028737;28;20654;-70
2024/01/23 02:46:24;;;;;;;2.70;2.50;;;;;;;-7.30;100.00;-18650.66;5030044;28;20600;-72
2024/01/23 02:48:49;;;;;;;1.80;1.70;;;;;;;-7.27;100.00;-18651.19;5027411;28;20183;-71
2024/01/23 02:51:20;;;;;;;3.03;2.83;;;;;;;-7.56;100.00;-18645.28;5029456;28;20168;-69
2024/01/23 02:53:47;;;;;;;2.27;2.10;;;;;;;-7.69;100.00;-18642.59;5032052;28;20321;-72
2024/01/23 02:56:12;;;;;;;2.20;2.10;;;;;;;-7.22;100.00;-18962.16;5032105;28;20172;-70
2024/01/23 02:58:41;;;;;;;1.53;1.43;;;;;;;-7.55;100.00;-18645.41;5038111;28;20305;-70
2024/01/23 03:01:07;;;;;;;1.90;1.80;;;;;;;-7.20;100.00;-18652.63;5034037;28;20189;-72
2024/01/23 03:03:32;;;;;;;1.70;1.60;;;;;;;-7.32;100.00;-18650.25;5032750;28;20204;-69
2024/01/23 03:05:58;;;;;;;2.07;1.97;;;;;;;-7.54;100.00;-18955.38;5034204;28;20254;-69
2024/01/23 03:08:23;;;;;;;1.70;1.60;;;;;;;-7.56;100.00;-18645.19;5032777;28;20177;-72
2024/01/23 03:10:49;;;;;;;1.63;1.53;;;;;;;-7.20;100.00;-18652.63;5033471;28;20181;-72
2024/01/23 03:13:15;;;;;;;1.63;1.53;;;;;;;-7.61;100.00;-18644.25;5041738;28;20192;-72
2024/01/23 03:15:40;;;;;;;1.50;1.40;;;;;;;-7.53;100.00;-18645.81;5034208;28;20191;-73
2024/01/23 03:18:06;;;;;;;2.27;2.17;;;;;;;-7.36;100.00;-18649.41;5034130;28;20709;-72
2024/01/23 03:20:33;;;;;;;2.20;2.00;;;;;;;-7.54;100.00;-18645.72;5032558;28;20527;-72
2024/01/23 03:22:58;;;;;;;1.90;1.80;;;;;;;-7.49;100.00;-18956.44;5033735;28;20583;-68
2024/01/23 03:25:24;;;;;;;1.60;1.50;;;;;;;-7.65;100.00;-18953.28;5033873;28;20282;-71
2024/01/23 03:27:50;;;;;;;1.80;1.70;;;;;;;-7.55;100.00;-18955.19;5033710;28;20653;-72
2024/01/23 03:30:29;;;;;;;2.53;2.33;;;;;;;-7.52;100.00;-18646.00;5033632;28;20654;-72
2024/01/23 03:32:55;;;;;;;1.50;1.40;;;;;;;-7.85;100.00;-18639.28;5033459;28;20199;-72
2024/01/23 03:35:21;;;;;;;1.50;1.40;;;;;;;-7.65;100.00;-18953.16;5033558;28;20636;-69
2024/01/23 03:37:46;;;;;;;1.60;1.50;;;;;;;-7.70;100.00;-18952.09;5033624;28;20267;-71
2024/01/23 03:40:12;;;;;;;1.67;1.57;;;;;;;-7.76;100.00;-19260.47;5033747;28;20663;-71
2024/01/23 03:42:37;;;;;;;1.87;1.77;;;;;;;-7.79;100.00;-19259.81;5033202;28;20199;-69
2024/01/23 03:45:03;;;;;;;2.37;2.27;;;;;;;-7.49;100.00;-18956.44;5033749;28;20229;-70
2024/01/23 03:47:28;;;;;;;2.67;2.47;;;;;;;-7.47;100.00;-18956.97;5033284;28;20590;-74
2024/01/23 03:49:54;;;;;;;1.60;1.50;;;;;;;-7.56;100.00;-18955.06;5033094;28;20609;-72
2024/01/23 03:52:19;;;;;;;1.60;1.50;;;;;;;-7.33;100.00;-18959.84;5032802;28;20183;-69
2024/01/23 03:54:44;;;;;;;2.90;2.70;;;;;;;-7.70;100.00;-18332.75;5033362;28;20624;-71
2024/01/23 03:57:10;;;;;;;2.33;2.23;;;;;;;-7.33;100.00;-17720.06;5032757;28;20176;-71
2024/01/23 03:59:35;;;;;;;2.13;2.03;;;;;;;-7.28;100.00;-17411.09;5033393;28;20172;-71
2024/01/23 04:02:01;;;;;;;1.70;1.60;;;;;;;-7.69;100.00;-17713.28;5032550;28;20690;-70
2024/01/23 04:04:26;;;;;;;1.67;1.57;;;;;;;-7.85;100.00;-18020.06;5032092;28;20179;-72
2024/01/23 04:06:52;;;;;;;1.50;1.40;;;;;;;-7.93;100.00;-18328.03;5032933;28;20179;-72
2024/01/23 04:09:17;;;;;;;1.70;1.60;;;;;;;-7.66;100.00;-18333.47;5040262;28;20234;-74
2024/01/23 04:11:46;;;;;;;1.70;1.60;;;;;;;-7.68;100.00;-18023.28;5033239;28;20174;-72
2024/01/23 04:14:11;;;;;;;2.10;2.00;;;;;;;-7.71;100.00;-17713.00;5033041;28;20246;-69
2024/01/23 04:16:37;;;;;;;2.00;1.90;;;;;;;-7.65;100.00;-18023.97;5033365;28;20179;-73
2024/01/23 04:19:02;;;;;;;3.30;3.00;;;;;;;-8.09;100.00;-18324.91;5031405;28;20641;-70
2024/01/23 04:21:28;;;;;;;1.90;1.80;;;;;;;-7.94;100.00;-18327.94;5033243;28;20254;-71
2024/01/23 04:23:53;;;;;;;2.17;2.07;;;;;;;-7.75;100.00;-18641.38;5031348;28;20290;-68
2024/01/23 04:26:19;;;;;;;2.00;1.90;;;;;;;-7.69;100.00;-18642.72;5031202;28;20202;-71
2024/01/23 04:28:46;;;;;;;2.10;2.00;;;;;;;-7.72;100.00;-18951.69;5031207;28;20175;-70
2024/01/23 04:31:11;;;;;;;1.90;1.80;;;;;;;-7.99;100.00;-18636.41;5032619;28;20163;-69
2024/01/23 04:33:37;;;;;;;2.00;1.90;;;;;;;-7.95;100.00;-18637.34;5032433;28;20215;-70
2024/01/23 04:36:03;;;;;;;3.03;2.83;;;;;;;-8.02;100.00;-18945.44;5031198;28;20647;-72
2024/01/23 04:38:28;;;;;;;2.17;2.07;;;;;;;-7.95;100.00;-19256.34;5031867;28;20266;-71
2024/01/23 04:40:53;;;;;;;2.33;2.23;;;;;;;-8.03;100.00;-19254.72;5040458;28;20179;-72
2024/01/23 04:43:19;;;;;;;1.97;1.87;;;;;;;-7.98;100.00;-19255.69;5032348;28;20230;-72
2024/01/23 04:45:44;;;;;;;2.27;2.17;;;;;;;-7.58;100.00;-19574.09;5032467;28;20203;-74
2024/01/23 04:48:10;;;;;;;2.03;1.93;;;;;;;-8.26;100.00;-19559.09;5032174;28;20269;-72
2024/01/23 04:50:35;;;;;;;2.23;2.13;;;;;;;-7.68;100.00;-19571.88;5032093;28;20179;-73
2024/01/23 04:53:01;;;;;;;2.67;2.47;;;;;;;-7.91;100.00;-19257.34;5031841;28;20228;-71
2024/01/23 04:55:26;;;;;;;2.10;2.00;;;;;;;-7.96;100.00;-19256.25;5031808;28;20183;-73
2024/01/23 04:57:51;;;;;;;2.57;2.43;;;;;;;-7.96;100.00;-19565.75;5031877;28;20505;-69
2024/01/23 05:00:17;;;;;;;1.60;1.50;;;;;;;-7.93;100.00;-19256.78;5032046;28;20317;-72
2024/01/23 05:02:43;;;;;;;1.67;1.57;;;;;;;-7.99;100.00;-19255.47;5031990;28;20192;-73
2024/01/23 05:05:08;;;;;;;1.70;1.60;;;;;;;-8.01;100.00;-19255.06;5031629;28;20176;-73
2024/01/23 05:07:34;;;;;;;1.70;1.60;;;;;;;-8.11;100.00;-19253.00;5030568;28;20207;-73
2024/01/23 05:10:00;;;;;;;1.87;1.77;;;;;;;-8.04;100.00;-19254.63;5031328;28;20179;-71
2024/01/23 05:12:25;;;;;;;1.70;1.60;;;;;;;-7.84;100.00;-19258.84;5031930;28;20619;-71
2024/01/23 05:14:51;;;;;;;1.80;1.70;;;;;;;-7.73;100.00;-19261.13;5031203;28;20255;-70
2024/01/23 05:17:16;;;;;;;1.60;1.50;;;;;;;-7.94;100.00;-19256.56;5036931;28;20582;-73
2024/01/23 05:19:42;;;;;;;2.00;1.90;;;;;;;-7.69;100.00;-18952.31;5031548;28;20525;-72
2024/01/23 05:22:07;;;;;;;1.90;1.80;;;;;;;-7.70;100.00;-18952.09;5031679;28;20278;-74
2024/01/23 05:24:33;;;;;;;2.07;1.97;;;;;;;-7.84;100.00;-19258.75;5031493;28;20177;-70
2024/01/23 05:26:58;;;;;;;1.73;1.63;;;;;;;-7.87;100.00;-19258.19;5031404;28;20244;-73
2024/01/23 05:29:23;;;;;;;2.30;2.00;;;;;;;-8.16;100.00;-19252.00;5031246;28;20176;-76
2024/01/23 05:31:49;;;;;;;1.60;1.50;;;;;;;-7.82;100.00;-19259.28;5031388;28;20241;-71
2024/01/23 05:34:14;;;;;;;1.60;1.50;;;;;;;-7.60;100.00;-19263.94;5031544;28;20227;-68
2024/01/23 05:36:39;;;;;;;1.60;1.50;;;;;;;-7.93;100.00;-19256.78;5030993;28;20211;-71
2024/01/23 05:39:05;;;;;;;1.60;1.50;;;;;;;-7.51;100.00;-19265.91;5031565;28;20215;-71
2024/01/23 05:41:30;;;;;;;2.03;1.83;;;;;;;-7.70;100.00;-18952.22;5031195;28;20634;-73
2024/01/23 05:43:57;;;;;;;1.80;1.70;;;;;;;-7.58;100.00;-18644.78;5030938;28;20203;-71
2024/01/23 05:46:22;;;;;;;1.70;1.60;;;;;;;-7.73;100.00;-18641.88;5031313;28;20175;-73
2024/01/23 05:48:48;;;;;;;1.90;1.80;;;;;;;-7.82;100.00;-18330.25;5029452;28;20207;-72
2024/01/23 05:51:13;;;;;;;1.83;1.73;;;;;;;-7.74;100.00;-18022.13;5030434;28;20179;-71
2024/01/23 05:53:38;;;;;;;3.03;2.47;;;;;;;-7.55;100.00;-18025.75;5029639;28;20175;-75
2024/01/23 05:56:04;;;;;;;2.60;2.40;;;;;;;-7.41;100.00;-17718.66;5030610;28;20185;-75
2024/01/23 05:58:30;;;;;;;2.50;2.30;;;;;;;-7.51;100.00;-17716.72;5030508;28;20207;-72
2024/01/23 06:00:55;;;;;;;1.73;1.63;;;;;;;-7.64;100.00;-17714.34;5030705;28;20187;-71
2024/01/23 06:03:21;;;;;;;2.10;2.00;;;;;;;-7.31;100.00;-17720.56;5030378;28;20222;-73
2024/01/23 06:05:46;;;;;;;1.50;1.40;;;;;;;-7.32;100.00;-17410.34;5028802;28;20179;-71
2024/01/23 06:08:12;;;;;;;1.57;1.47;;;;;;;-7.48;100.00;-17097.41;5028761;28;20622;-71
2024/01/23 06:10:37;;;;;;;2.03;1.93;;;;;;;-7.68;100.00;-17093.88;5028306;28;20242;-76
2024/01/23 06:13:03;;;;;;;1.80;1.70;;;;;;;-7.35;100.00;-16789.69;5029596;28;20169;-72
2024/01/23 06:15:28;;;;;;;2.33;2.13;;;;;;;-7.53;100.00;-16786.53;5029979;28;20179;-73
2024/01/23 06:17:54;;;;;;;1.80;1.70;;;;;;;-7.09;100.00;-15863.41;5029889;28;20615;-73
2024/01/23 06:20:19;;;;;;;1.60;1.50;;;;;;;-7.13;100.00;-16173.03;5029496;28;20172;-73
2024/01/23 06:22:44;;;;;;;3.00;2.03;;;;;;;-6.99;100.00;-17106.16;5028832;28;20202;-71
2024/01/23 06:25:15;;;;;;;1.63;1.53;;;;;;;-6.85;100.00;-14625.22;5033622;28;20179;-70
2024/01/23 06:27:44;;;;;;;1.63;1.53;;;;;;;-7.08;100.00;-14932.44;5032998;28;20163;-72
2024/01/23 06:30:11;;;;;;;1.53;1.43;;;;;;;-7.11;100.00;-15552.69;5032641;28;20276;-72
2024/01/23 06:32:37;;;;;;;1.50;1.40;;;;;;;-7.09;100.00;-14621.97;5034432;28;20708;-71
2024/01/23 06:35:04;;;;;;;1.47;1.37;;;;;;;-7.04;100.00;-14001.69;5034236;28;20221;-74
2024/01/23 06:37:29;;;;;;;1.57;1.47;;;;;;;-7.07;100.00;-14311.72;5033040;28;20650;-74
2024/01/23 06:39:55;;;;;;;1.43;1.33;;;;;;;-7.06;100.00;-14932.72;5034688;28;20190;-70
2024/01/23 06:42:20;;;;;;;1.60;1.50;;;;;;;-6.94;100.00;-14623.97;5032854;28;20629;-74
2024/01/23 06:44:46;;;;;;;1.57;1.47;;;;;;;-6.62;100.00;-15249.59;5034731;28;20170;-72
2024/01/23 06:47:11;;;;;;;1.60;1.50;;;;;;;-6.58;100.00;-15560.81;5034222;28;20168;-74
2024/01/23 06:49:37;;;;;;;1.83;1.73;;;;;;;-6.43;100.00;-16184.47;5034393;28;20170;-72
2024/01/23 06:52:02;;;;;;;1.80;1.70;;;;;;;-6.24;100.00;-16808.88;5033678;28;20558;-71
2024/01/23 06:54:28;;;;;;;1.60;1.50;;;;;;;-6.17;100.00;-16810.00;5033942;28;20175;-73
2024/01/23 06:56:53;;;;;;;1.53;1.43;;;;;;;-6.28;100.00;-17118.88;5032153;28;20583;-77
2024/01/23 06:59:19;;;;;;;1.50;1.40;;;;;;;-6.01;100.00;-16812.81;5032437;28;20183;-72
2024/01/23 07:01:44;;;;;;;2.50;1.83;;;;;;;-6.04;100.00;-16501.59;5034316;28;20209;-72
2024/01/23 07:04:09;;;;;;;1.53;1.43;;;;;;;-5.82;100.00;-16194.34;5034075;28;20661;-72
2024/01/23 07:06:35;;;;;;;1.60;1.50;;;;;;;-5.69;100.00;-15574.47;5032363;28;20210;-70
2024/01/23 07:09:00;;;;;;;1.73;1.63;;;;;;;-5.53;100.00;-15576.91;5033828;28;20883;-74
2024/01/23 07:11:27;;;;;;;2.30;2.17;;;;;;;-5.90;100.00;-15882.22;5033912;28;20182;-70
2024/01/23 07:13:52;;;;;;;1.63;1.53;;;;;;;-5.39;100.00;-16201.41;5033424;28;20190;-71
2024/01/23 07:16:18;;;;;;;1.53;1.43;;;;;;;-5.62;100.00;-16197.56;5033151;28;20662;-73
2024/01/23 07:18:43;;;;;;;2.03;1.93;;;;;;;-5.25;100.00;-16203.56;5033515;28;20222;-73
2024/01/23 07:21:12;;;;;;;1.43;1.33;;;;;;;-5.19;100.00;-16826.97;5033607;28;20164;-73
2024/01/23 07:23:37;;;;;;;2.20;2.00;;;;;;;-5.18;100.00;-16516.03;5032159;28;20206;-73
2024/01/23 07:26:03;;;;;;;1.63;1.53;;;;;;;-5.29;100.00;-16514.16;5033568;28;20664;-70
2024/01/23 07:28:29;;;;;;;1.67;1.57;;;;;;;-4.81;100.00;-15276.25;5033728;28;20202;-72
2024/01/23 07:30:54;;;;;;;5.37;2.60;;;;;;;-5.03;100.00;-14961.72;5033377;28;20789;-72
2024/01/23 07:33:20;;;;;;;1.53;1.43;;;;;;;-4.82;100.00;-14964.66;5038254;28;20258;-71
2024/01/23 07:35:45;;;;;;;1.40;1.30;;;;;;;-4.50;100.00;-14345.66;5035698;28;20554;-72
2024/01/23 07:38:11;;;;;;;1.80;1.70;;;;;;;-4.55;100.00;-14656.75;5033259;28;20168;-75
2024/01/23 07:40:37;;;;;;;1.47;1.37;;;;;;;-4.41;100.00;-15282.19;5033295;28;20172;-73
2024/01/23 07:43:03;;;;;;;2.43;2.00;;;;;;;-4.44;100.00;-15281.75;5033205;28;20286;-71
2024/01/23 07:45:28;;;;;;;1.50;1.40;;;;;;;-4.52;100.00;-14345.47;5033322;28;20645;-71
2024/01/23 07:47:54;;;;;;;1.70;1.60;;;;;;;-4.40;100.00;-13723.28;5033345;28;20175;-72
2024/01/23 07:50:19;;;;;;;2.00;1.80;;;;;;;-4.27;100.00;-11852.56;5033061;28;20173;-72
2024/01/23 07:52:46;;;;;;;1.40;1.30;;;;;;;-4.24;100.00;-8104.94;5033059;28;20183;-71
2024/01/23 07:55:11;;;;;;;1.87;1.77;;;;;;;-4.18;100.00;-10604.44;5031590;28;20184;-73
2024/01/23 07:57:37;;;;;;;2.30;2.20;;;;;;;-4.36;100.00;-12787.91;5032547;28;20322;-72
2024/01/23 08:00:03;;;;;;;3.10;2.27;;;;;;;-4.15;100.00;-12790.09;5031328;28;20180;-73
2024/01/23 08:02:30;;;;;;;2.03;1.93;;;;;;;-3.67;100.00;-12170.41;5032442;28;20286;-69
2024/01/23 08:04:56;;;;;;;1.20;1.20;;;;;;;-4.00;100.00;-11542.72;5032390;28;20184;-73
2024/01/23 08:07:21;;;;;;;1.63;1.53;;;;;;;-3.76;100.00;-12794.25;5033360;28;20170;-73
2024/01/23 08:09:47;;;;;;;1.67;1.57;;;;;;;-3.59;100.00;-11546.25;5032702;28;20179;-74
2024/01/23 08:12:13;;;;;;;1.47;1.37;;;;;;;-3.57;100.00;-8419.66;5033020;28;20178;-71
2024/01/23 08:14:38;;;;;;;1.90;1.80;;;;;;;-3.55;100.00;-6229.16;5032656;28;20292;-71
2024/01/23 08:17:04;;;;;;;1.87;1.77;;;;;;;-3.46;100.00;-6229.13;5032492;28;20258;-73
2024/01/23 08:19:30;;;;;;;1.63;1.53;;;;;;;-3.47;100.00;-7481.22;5032614;28;20173;-72
2024/01/23 08:21:55;;;;;;;1.67;1.57;;;;;;;-3.11;100.00;-7481.84;5032675;28;20252;-71
2024/01/23 08:24:21;;;;;;;1.50;1.40;;;;;;;-3.54;100.00;-9358.13;5032529;28;20219;-71
2024/01/23 08:26:47;;;;;;;2.00;1.90;;;;;;;-3.40;100.00;-8107.28;5030630;28;20190;-72
2024/01/23 08:29:13;;;;;;;1.20;1.20;;;;;;;-2.94;100.00;-6228.97;5031036;28;20179;-70
2024/01/23 08:31:38;;;;;;;1.93;1.83;;;;;;;-2.70;100.00;-4347.44;5040908;28;20188;-70
2024/01/23 08:34:04;;;;;;;2.27;2.07;;;;;;;-2.65;100.00;-4660.97;5030421;28;20373;-73
2024/01/23 08:36:29;;;;;;;1.63;1.53;;;;;;;-2.50;100.00;-6542.38;5030482;28;20187;-68
2024/01/23 08:38:55;;;;;;;3.73;2.07;;;;;;;-2.46;100.00;-5287.84;5030318;28;20206;-73
2024/01/23 08:41:20;;;;;;;1.53;1.43;;;;;;;-2.51;100.00;-3719.19;5038180;28;20298;-72
2024/01/23 08:43:46;;;;;;;1.43;1.37;;;;;;;-2.48;100.00;-4660.44;5032500;28;20247;-73
2024/01/23 08:46:13;;;;;;;2.90;2.13;;;;;;;-2.15;100.00;-4031.56;5030783;28;20638;-71
2024/01/23 08:48:39;;;;;;;1.17;1.17;;;;;;;-2.29;100.00;-4032.13;5039506;28;20182;-73
2024/01/23 08:51:05;;;;;;;1.70;1.60;;;;;;;-2.04;100.00;-2774.75;5026843;28;20563;-73
2024/01/23 08:53:30;;;;;;;2.17;1.97;;;;;;;-1.99;100.00;-4030.94;5037638;28;20535;-71
2024/01/23 08:55:56;;;;;;;2.23;2.03;;;;;;;-1.65;100.00;-4972.13;5037820;28;20276;-73
2024/01/23 08:58:22;;;;;;;2.40;2.13;;;;;;;-1.61;100.00;-1828.88;5038053;28;20191;-69
2024/01/23 09:00:48;;;;;;;1.20;1.20;;;;;;;-1.31;100.00;-882.63;5030121;28;20581;-72
2024/01/23 09:03:13;;;;;;;1.60;1.50;;;;;;;-1.43;100.00;-1512.94;5030299;28;20289;-73
2024/01/23 09:05:39;;;;;;;1.83;1.73;;;;;;;-1.10;100.00;-1825.00;5037386;28;20248;-73
2024/01/23 09:08:04;;;;;;;2.17;1.67;;;;;;;-1.22;100.00;62.63;5030041;28;20303;-69
2024/01/23 09:10:30;;;;;;;2.60;1.97;;;;;;;-1.11;100.00;4475.59;5030072;28;20188;-72
2024/01/23 09:12:55;;;;;;;1.40;1.30;;;;;;;-1.20;100.00;4158.66;5030254;28;20561;-74
2024/01/23 09:15:21;;;;;;;1.60;1.50;;;;;;;-1.41;100.00;1319.94;5037434;28;20184;-72
2024/01/23 09:17:46;;;;;;;1.50;1.43;;;;;;;-1.88;100.00;3202.22;5037721;28;20204;-72
2024/01/23 09:20:12;;;;;;;1.30;1.30;;;;;;;-1.77;100.00;4463.53;5036333;28;20185;-75
2024/01/23 09:22:37;;;;;;;1.30;1.30;;;;;;;-1.47;100.00;4153.97;5031065;28;20205;-72
2024/01/23 09:25:05;;;;;;;1.53;1.43;;;;;;;-1.50;100.00;5413.97;5028732;28;20216;-71
2024/01/23 09:27:31;;;;;;;1.53;1.43;;;;;;;-1.49;100.00;1004.00;5038182;28;20197;-72
2024/01/23 09:29:57;;;;;;;1.63;1.53;;;;;;;-1.42;100.00;1319.72;5031414;28;20205;-74
2024/01/23 09:32:22;;;;;;;2.40;2.20;;;;;;;-1.11;100.00;63.88;5029932;28;20188;-70
2024/01/23 09:34:48;;;;;;;1.50;1.40;;;;;;;-0.94;100.00;65.69;5030737;28;20234;-71
2024/01/23 09:37:14;;;;;;;1.93;1.77;;;;;;;-0.88;100.00;2902.75;5032111;28;20649;-71
2024/01/23 09:39:39;;;;;;;1.67;1.57;;;;;;;-0.97;100.00;4793.56;5031358;28;20169;-71
2024/01/23 09:42:05;;;;;;;1.23;1.23;;;;;;;-1.14;100.00;7629.72;5031168;28;20210;-73
2024/01/23 09:44:31;;;;;;;1.60;1.50;;;;;;;-1.00;100.00;6054.91;5031479;28;20566;-73
2024/01/23 09:46:57;;;;;;;1.50;1.40;;;;;;;-0.75;100.00;10166.19;5031373;28;20170;-71
2024/01/23 09:49:24;;;;;;;1.20;1.20;;;;;;;-0.71;100.00;13013.28;5040350;28;20646;-72
2024/01/23 09:51:51;;;;;;;1.70;1.60;;;;;;;-0.82;100.00;14275.31;5031927;28;20179;-74
2024/01/23 09:54:17;;;;;;;1.30;1.30;;;;;;;-0.50;100.00;14286.41;5031138;28;20168;-70
2024/01/23 09:56:43;;;;;;;1.70;1.60;;;;;;;-0.35;100.00;9860.91;5030926;28;20257;-73
2024/01/23 09:59:12;;;;;;;4.07;2.33;;;;;;;-0.70;100.00;8587.53;5030829;28;20249;-74
2024/01/23 10:01:38;;;;;;;2.13;1.60;;;;;;;-0.07;100.00;9552.31;5030531;28;20191;-73
2024/01/23 10:04:05;;;;;;;1.97;1.87;;;;;;;-0.21;100.00;11130.25;5029065;28;20191;-71
2024/01/23 10:06:34;;;;;;;2.03;1.93;;;;;;;0.19;100.00;11458.53;5030464;28;20580;-69
2024/01/23 10:09:00;;;;;;;2.03;1.93;;;;;;;0.34;100.00;13364.25;5029407;28;20619;-70
2024/01/23 10:11:32;;;;;;;1.73;1.63;;;;;;;0.35;100.00;11463.47;5030592;28;20186;-70
2024/01/23 10:14:03;;;;;;;2.00;1.70;;;;;;;0.72;100.00;11474.28;5030999;28;20233;-71
2024/01/23 10:16:29;;;;;;;2.07;1.97;;;;;;;0.64;100.00;14642.69;5030630;28;20163;-72
2024/01/23 10:18:54;;;;;;;1.67;1.57;;;;;;;0.74;100.00;19090.97;5030283;28;20186;-74
2024/01/23 10:21:24;;;;;;;3.80;2.13;;;;;;;0.82;100.00;24818.63;5030206;28;20704;-70
2024/01/23 10:23:50;;;;;;;2.40;2.20;;;;;;;0.77;100.00;29593.31;5030414;28;20249;-73
2024/01/23 10:26:17;;;;;;;1.80;1.70;;;;;;;0.78;100.00;24498.28;5030363;28;20591;-71
2024/01/23 10:28:46;;;;;;;5.87;2.00;;;;;;;1.16;100.00;23880.63;5028546;28;20300;-73
2024/01/23 10:31:12;;;;;;;1.50;1.40;;;;;;;1.07;100.00;22603.03;5030406;28;20673;-72
2024/01/23 10:33:38;;;;;;;2.10;1.90;;;;;;;1.57;100.00;22627.34;5030495;28;20219;-74
2024/01/23 10:36:08;;;;;;;1.50;1.40;;;;;;;1.69;100.00;23907.56;5029942;28;20222;-70
2024/01/23 10:38:37;;;;;;;3.13;2.83;;;;;;;1.75;100.00;26461.09;5029524;28;20179;-72
2024/01/23 10:41:07;;;;;;;5.17;2.57;;;;;;;1.66;100.00;30604.16;5028918;28;20681;-71
2024/01/23 10:43:33;;;;;;;2.17;1.90;;;;;;;1.51;100.00;30275.69;5029516;28;20436;-72
2024/01/23 10:46:02;;;;;;;1.50;1.40;;;;;;;1.32;100.00;30902.50;5030237;28;20175;-74
2024/01/23 10:48:31;;;;;;;1.77;1.67;;;;;;;1.74;100.00;30289.50;5030323;28;20240;-70
2024/01/23 10:51:19;;;;;;;1.63;1.53;;;;;;;1.68;100.00;36037.72;5030023;28;20187;-73
2024/01/23 10:53:57;;;;;;;2.47;2.27;;;;;;;1.35;100.00;34735.97;5030387;28;20670;-73
2024/01/23 10:56:24;;;;;;;2.13;2.03;;;;;;;1.68;100.00;37637.16;5040280;28;20179;-71
2024/01/23 10:59:00;;;;;;;2.40;2.10;;;;;;;1.59;100.00;45154.38;5031189;28;20317;-74
2024/01/23 11:01:29;;;;;;;1.73;1.63;;;;;;;1.38;100.00;44021.69;5030892;28;20159;-71
2024/01/23 11:03:55;;;;;;;1.63;1.50;;;;;;;1.46;100.00;50007.63;5030644;28;20206;-71
2024/01/23 11:06:29;;;;;;;1.43;1.33;;;;;;;1.72;100.00;51766.44;5030681;28;20333;-72
2024/01/23 11:09:26;;;;;;;1.60;1.50;;;;;;;1.78;100.00;56603.16;5030640;28;20180;-73
2024/01/23 11:12:00;;;;;;;1.03;1.03;;;;;;;1.56;100.00;56897.09;5030470;28;20569;-71
2024/01/23 11:14:30;;;;;;;2.20;2.10;;;;;;;1.34;100.00;57642.66;5034056;28;20174;-73
2024/01/23 11:17:09;;;;;;;2.87;2.60;;;;;;;1.44;100.00;57074.78;5034064;28;20214;-73